2008 IVAN (2008037S10055)


On this page: IBTrACS data - Map and Plots - Positions - Intensities - Original source data

Summary

Start Feb 5
End Feb 27
Basin SI
LMI 125 kt
Sources jtwc_sh
reunion
In WMO? Yes
Previous storm 2008 MISSING (SI)
Previous in basin 2008 MISSING (SI)
Concurrent storms 2008 GENE (SP)
2008 HONDO (SI)
2008 MISSING (SI)
2008 IVAN (SI)
2008 NICHOLAS (SI)
2008 OPHELIA (SI)
Next in basin 2008 NICHOLAS (SI)
Next storm 2008 NICHOLAS (SI)

top of page IBTrACS Data: File Access

top of page HURSAT Data: File Access

Image of storm

top of page Plots:

Map of storm track will not appear if FTP is down
Time series of cyclone Maximum Sustained Wind will not appear if FTP is down
Time series of cyclone Minimum Central Pressure will not appear if FTP is down

top of page Track Data:Position

jtwc_sh reunion
Date Lat Lon Lat Lon
2008-02-05 12:00:00 -10.2 55.3 -10.5 55.1
2008-02-05 18:00:00 -10.6 55.8 -10.8 55.7
2008-02-06 00:00:00 -10.9 56.3 -11.1 56.3
2008-02-06 06:00:00 -11.3 56.8 -11.4 56.9
2008-02-06 12:00:00 -11.6 57.5 -11.6 57.6
2008-02-06 18:00:00 -11.9 58.6 -12.0 58.6
2008-02-07 00:00:00 -12.5 59.8 -12.5 59.7
2008-02-07 06:00:00 -13.2 60.9 -13.1 61.0
2008-02-07 12:00:00 -13.9 61.7 -13.7 61.7
2008-02-07 18:00:00 -14.4 62.4 -14.4 62.2
2008-02-08 00:00:00 -15.0 62.9 -15.0 62.8
2008-02-08 06:00:00 -15.5 63.3 -15.6 63.2
2008-02-08 12:00:00 -15.8 63.4 -16.0 63.3
2008-02-08 18:00:00 -16.0 63.3 -16.0 63.3
2008-02-09 00:00:00 -15.9 63.1 -15.8 63.1
2008-02-09 06:00:00 -15.7 63.2 -15.7 63.2
2008-02-09 12:00:00 -15.5 63.5 -15.6 63.5
2008-02-09 18:00:00 -15.3 63.9 -15.2 63.9
2008-02-10 00:00:00 -15.1 64.2 -14.9 64.2
2008-02-10 06:00:00 -14.9 64.5 -14.8 64.5
2008-02-10 12:00:00 -14.8 64.8 -14.7 64.7
2008-02-10 18:00:00 -14.7 65.0 -14.6 64.9
2008-02-11 00:00:00 -14.5 65.1 -14.5 65.0
2008-02-11 06:00:00 -14.4 65.1 -14.3 65.1
2008-02-11 12:00:00 -14.3 65.0 -14.4 65.0
jtwc_sh reunion
2008-02-11 18:00:00 -14.2 64.9 -14.2 65.0
2008-02-12 00:00:00 -14.2 64.8 -14.2 64.9
2008-02-12 06:00:00 -14.2 64.6 -14.2 64.5
2008-02-12 12:00:00 -14.1 64.3 -14.2 64.3
2008-02-12 18:00:00 -14.2 63.8 -14.2 63.7
2008-02-13 00:00:00 -14.2 62.9 -14.2 62.9
2008-02-13 06:00:00 -13.7 62.1 -13.7 62.1
2008-02-13 12:00:00 -13.4 61.5 -13.4 61.8
2008-02-13 18:00:00 -13.3 60.8 -13.3 61.1
2008-02-14 00:00:00 -13.3 60.1 -13.4 60.2
2008-02-14 06:00:00 -13.5 59.3 -13.6 59.3
2008-02-14 12:00:00 -13.8 58.5 -13.9 58.3
2008-02-14 18:00:00 -14.2 57.6 -14.3 57.4
2008-02-15 00:00:00 -14.6 56.7 -14.7 56.7
2008-02-15 06:00:00 -15.2 55.8 -15.2 55.7
2008-02-15 12:00:00 -15.7 54.9 -15.6 54.8
2008-02-15 18:00:00 -16.0 54.0 -16.0 54.1
2008-02-16 00:00:00 -16.1 53.3 -16.1 53.3
2008-02-16 06:00:00 -16.2 52.6 -16.2 52.6
2008-02-16 12:00:00 -16.5 51.9 -16.6 51.8
2008-02-16 18:00:00 -16.8 51.2 -16.7 51.1
2008-02-17 00:00:00 -17.0 50.5 -16.9 50.5
2008-02-17 06:00:00 -17.1 49.7 -17.2 49.6
2008-02-17 12:00:00 -17.2 48.9 -17.3 48.9
jtwc_sh reunion
2008-02-17 18:00:00 -17.5 48.0 -17.5 48.1
2008-02-18 00:00:00 -17.9 47.1 -18.1 46.9
2008-02-18 06:00:00 -18.5 46.4 -18.6 46.1
2008-02-18 12:00:00 -19.2 45.9 -19.4 45.3
2008-02-18 18:00:00 -19.9 45.5 -20.2 44.7
2008-02-19 00:00:00 -20.5 45.1 -20.9 44.1
2008-02-19 06:00:00 -21.0 44.6 -21.6 43.6
2008-02-19 12:00:00 -21.4 44.1 -22.3 43.2
2008-02-19 18:00:00 -21.8 43.6 -22.5 43.1
2008-02-20 00:00:00 -22.3 43.1 -22.8 42.9
2008-02-20 06:00:00 -22.8 42.7 -23.0 42.8
2008-02-20 12:00:00 -23.2 42.7
2008-02-20 18:00:00 -23.4 42.4
2008-02-21 00:00:00 -23.3 42.2
2008-02-21 06:00:00 -22.4 42.0
2008-02-21 12:00:00 -22.0 42.3
2008-02-21 18:00:00 -21.6 42.7
2008-02-22 00:00:00 -21.7 42.5
2008-02-22 06:00:00 -21.8 42.3
2008-02-22 12:00:00 -22.6 42.4
2008-02-22 18:00:00 -23.4 42.3
2008-02-23 00:00:00 -24.4 42.3
2008-02-23 06:00:00 -25.3 42.2
2008-02-23 12:00:00 -26.0 42.1
jtwc_sh reunion
2008-02-23 18:00:00 -26.6 42.1
2008-02-24 00:00:00 -27.2 42.0
2008-02-24 06:00:00 -27.8 42.0
2008-02-24 12:00:00 -28.2 42.0
2008-02-24 18:00:00 -28.5 41.9
2008-02-25 00:00:00 -28.7 41.9
2008-02-25 06:00:00 -29.0 41.9
2008-02-25 12:00:00 -28.5 41.8
2008-02-25 18:00:00 -28.0 41.5
2008-02-26 00:00:00 -28.0 41.1
2008-02-26 06:00:00 -28.1 40.5
2008-02-26 12:00:00 -28.3 39.9
2008-02-26 18:00:00 -28.6 39.2
2008-02-27 00:00:00 -28.9 38.4
2008-02-27 06:00:00 -29.3 37.6

top of pageTrack Data:Intensity

jtwc_sh reunion
Date Wind Pres Wind Pres
2008-02-05 12:00:00 20. 1007. 20. 1004.
2008-02-05 18:00:00 25. 1004. 20. 1004.
2008-02-06 00:00:00 25. 1004. 20. 1004.
2008-02-06 06:00:00 25. 1004. 25. 1003.
2008-02-06 12:00:00 25. 1003. 25. 1001.
2008-02-06 18:00:00 30. 1000. 27. 1000.
2008-02-07 00:00:00 35. 996. 33. 996.
2008-02-07 06:00:00 40. 993. 40. 992.
2008-02-07 12:00:00 50. 985. 45. 987.
2008-02-07 18:00:00 55. 982. 50. 984.
2008-02-08 00:00:00 55. 982. 50. 984.
2008-02-08 06:00:00 55. 982. 50. 984.
2008-02-08 12:00:00 60. 978. 55. 980.
2008-02-08 18:00:00 60. 978. 55. 980.
2008-02-09 00:00:00 60. 974. 55. 980.
2008-02-09 06:00:00 65. 974. 55. 980.
2008-02-09 12:00:00 65. 974. 50. 984.
2008-02-09 18:00:00 60. 978. 45. 987.
2008-02-10 00:00:00 55. 982. 43. 989.
2008-02-10 06:00:00 60. 978. 43. 989.
2008-02-10 12:00:00 70. 970. 48. 985.
2008-02-10 18:00:00 75. 967. 55. 980.
2008-02-11 00:00:00 85. 959. 60. 975.
2008-02-11 06:00:00 85. 959. 65. 970.
2008-02-11 12:00:00 85. 959. 65. 970.
jtwc_sh reunion
2008-02-11 18:00:00 85. 959. 60. 975.
2008-02-12 00:00:00 80. 963. 55. 980.
2008-02-12 06:00:00 65. 974. 52. 983.
2008-02-12 12:00:00 60. 978. 50. 985.
2008-02-12 18:00:00 55. 982. 45. 987.
2008-02-13 00:00:00 45. 989. 40. 990.
2008-02-13 06:00:00 40. 993. 40. 990.
2008-02-13 12:00:00 45. 989. 40. 990.
2008-02-13 18:00:00 55. 982. 45. 987.
2008-02-14 00:00:00 55. 982. 45. 987.
2008-02-14 06:00:00 65. 974. 48. 985.
2008-02-14 12:00:00 70. 970. 50. 983.
2008-02-14 18:00:00 75. 967. 52. 981.
2008-02-15 00:00:00 85. 959. 55. 978.
2008-02-15 06:00:00 85. 959. 57. 975.
2008-02-15 12:00:00 85. 959. 60. 972.
2008-02-15 18:00:00 95. 952. 65. 967.
2008-02-16 00:00:00 95. 952. 70. 962.
2008-02-16 06:00:00 105. 944. 80. 953.
2008-02-16 12:00:00 125. 929. 95. 935.
2008-02-16 18:00:00 115. 937. 100. 930.
2008-02-17 00:00:00 115. 937. 100. 930.
2008-02-17 06:00:00 105. 944. 95. 935.
2008-02-17 12:00:00 80. 963. 50.
jtwc_sh reunion
2008-02-17 18:00:00 65. 974. 35.
2008-02-18 00:00:00 50. 985. 30.
2008-02-18 06:00:00 40. 995. 30.
2008-02-18 12:00:00 35. 996. 994.
2008-02-18 18:00:00 30. 1000. 996.
2008-02-19 00:00:00 30. 1000. 997.
2008-02-19 06:00:00 30. 1000. 999.
2008-02-19 12:00:00 30. 1000. 25. 998.
2008-02-19 18:00:00 30. 1000. 25. 998.
2008-02-20 00:00:00 20. 1007. 25. 998.
2008-02-20 06:00:00 20. 1007. 30. 998.
2008-02-20 12:00:00 30. 998.
2008-02-20 18:00:00 30. 998.
2008-02-21 00:00:00 30. 997.
2008-02-21 06:00:00 30. 997.
2008-02-21 12:00:00 33. 996.
2008-02-21 18:00:00 33. 996.
2008-02-22 00:00:00 33. 996.
2008-02-22 06:00:00 30. 997.
2008-02-22 12:00:00 30. 997.
2008-02-22 18:00:00 30. 998.
2008-02-23 00:00:00 30. 998.
2008-02-23 06:00:00 27. 999.
2008-02-23 12:00:00 27. 999.
jtwc_sh reunion
2008-02-23 18:00:00 27. 1000.
2008-02-24 00:00:00 27. 1001.
2008-02-24 06:00:00 25. 1002.
2008-02-24 12:00:00 25. 1002.
2008-02-24 18:00:00 25. 1003.
2008-02-25 00:00:00 25. 1004.
2008-02-25 06:00:00 25. 1005.
2008-02-25 12:00:00 25. 1006.
2008-02-25 18:00:00 25. 1007.
2008-02-26 00:00:00 20. 1007.
2008-02-26 06:00:00 20. 1008.
2008-02-26 12:00:00 20. 1008.
2008-02-26 18:00:00 20. 1008.
2008-02-27 00:00:00 20. 1008.
2008-02-27 06:00:00 20. 1009.

top of page Links to source data

Source Source file Format
jtwc_sh bsh182008.txt ATCF
reunion Best-Tracks-NewWMOFormat.txt:Line=2197:IVAN WMO (old format)